Time;durP1;ratioP1;P1;durP2;ratioP2;P2;SDS_P1;SDS_P2;PMS_P1;PMS_P2;Temp;Humidity;BMP_temperature;BMP_pressure;BME280_temperature;BME280_humidity;BME280_pressure;Samples;Min_cycle;Max_cycle;Signal;HPM_P1;HPM_P2
2022/01/07 00:00:16;;;;;;;24.25;13.00;;;3.20;88.00;;;;;;5102201;28;20327;-45
2022/01/07 00:02:45;;;;;;;24.13;12.85;;;3.20;87.90;;;;;;5095502;28;20039;-47
2022/01/07 00:05:14;;;;;;;20.43;11.87;;;3.20;87.80;;;;;;5101987;28;20405;-49
2022/01/07 00:07:42;;;;;;;23.48;13.48;;;3.20;87.90;;;;;;5087708;28;20278;-45
2022/01/07 00:10:14;;;;;;;21.80;12.00;;;3.20;87.80;;;;;;5109051;28;20360;-45
2022/01/07 00:12:41;;;;;;;24.48;11.82;;;3.20;87.80;;;;;;5108448;28;20057;-45
2022/01/07 00:15:09;;;;;;;21.45;13.48;;;3.10;87.80;;;;;;5093460;28;20047;-45
2022/01/07 00:17:35;;;;;;;24.05;11.68;;;3.20;87.80;;;;;;5097842;28;20053;-43
2022/01/07 00:20:08;;;;;;;21.02;12.38;;;3.20;87.70;;;;;;5112899;28;20119;-45
2022/01/07 00:22:37;;;;;;;21.52;11.18;;;3.20;87.70;;;;;;5112321;28;20030;-45
2022/01/07 00:25:04;;;;;;;29.58;11.75;;;3.20;87.70;;;;;;5095695;28;20035;-45
2022/01/07 00:27:36;;;;;;;24.15;12.70;;;3.20;87.70;;;;;;5081947;28;20063;-44
2022/01/07 00:30:05;;;;;;;24.20;11.63;;;3.20;87.80;;;;;;5106573;28;20471;-45
2022/01/07 00:32:32;;;;;;;23.87;11.77;;;3.20;87.60;;;;;;5080867;28;20121;-44
2022/01/07 00:34:59;;;;;;;23.27;12.10;;;3.20;87.40;;;;;;5110408;28;20028;-47
2022/01/07 00:37:26;;;;;;;20.42;10.90;;;3.20;87.50;;;;;;5098360;28;20100;-49
2022/01/07 00:39:53;;;;;;;19.70;11.55;;;3.20;87.50;;;;;;5103287;28;20623;-43
2022/01/07 00:42:22;;;;;;;21.60;11.77;;;3.20;87.30;;;;;;5096362;28;20165;-44
2022/01/07 00:44:49;;;;;;;21.27;11.05;;;3.20;87.20;;;;;;5101223;28;20108;-44
2022/01/07 00:47:16;;;;;;;18.52;10.23;;;3.20;87.20;;;;;;5098962;28;20027;-43
2022/01/07 00:49:44;;;;;;;20.30;10.18;;;3.20;87.20;;;;;;5097783;28;20099;-46
2022/01/07 00:52:10;;;;;;;21.52;11.13;;;3.20;87.10;;;;;;5097002;28;20043;-48
2022/01/07 00:54:40;;;;;;;21.98;9.93;;;3.20;86.90;;;;;;5114356;28;20140;-48
2022/01/07 00:57:07;;;;;;;19.85;10.50;;;3.30;86.90;;;;;;5116974;28;20078;-47
2022/01/07 00:59:34;;;;;;;20.83;10.93;;;3.20;86.80;;;;;;5104187;28;20044;-44
2022/01/07 01:02:01;;;;;;;21.65;10.93;;;3.30;86.90;;;;;;5096723;28;20030;-44
2022/01/07 01:04:27;;;;;;;16.83;10.70;;;3.20;86.90;;;;;;5105787;28;20036;-45
2022/01/07 01:06:54;;;;;;;20.45;10.07;;;3.20;87.00;;;;;;5098231;28;20028;-46
2022/01/07 01:09:22;;;;;;;19.58;9.10;;;3.20;86.90;;;;;;5102610;28;20365;-45
2022/01/07 01:11:49;;;;;;;21.70;10.23;;;3.30;86.80;;;;;;5078728;28;20024;-46
2022/01/07 01:14:16;;;;;;;17.20;9.23;;;3.30;86.70;;;;;;5111788;28;20032;-46
2022/01/07 01:16:41;;;;;;;17.17;9.43;;;3.30;86.50;;;;;;5107081;28;20115;-45
2022/01/07 01:19:07;;;;;;;21.38;9.43;;;3.30;86.30;;;;;;5100522;28;20119;-46
2022/01/07 01:21:35;;;;;;;17.15;8.93;;;3.30;86.20;;;;;;5098688;28;20066;-45
2022/01/07 01:24:02;;;;;;;15.40;8.43;;;3.30;86.30;;;;;;5083557;28;20024;-46
2022/01/07 01:26:29;;;;;;;17.83;7.82;;;3.30;86.30;;;;;;5090206;28;20134;-49
2022/01/07 01:28:56;;;;;;;17.80;9.10;;;3.30;86.20;;;;;;5111655;28;20042;-46
2022/01/07 01:31:23;;;;;;;19.38;8.27;;;3.30;86.20;;;;;;5095605;28;20115;-45
2022/01/07 01:33:50;;;;;;;20.05;8.40;;;3.40;86.40;;;;;;5098229;28;20042;-47
2022/01/07 01:36:17;;;;;;;21.15;9.23;;;3.40;86.30;;;;;;5114268;28;20046;-49
2022/01/07 01:38:43;;;;;;;19.27;9.90;;;3.40;86.30;;;;;;5106868;28;20042;-49
2022/01/07 01:41:10;;;;;;;23.63;8.80;;;3.30;86.40;;;;;;5097097;28;20031;-47
2022/01/07 01:43:37;;;;;;;20.65;8.30;;;3.30;86.40;;;;;;5103731;28;20058;-46
2022/01/07 01:46:04;;;;;;;16.75;8.10;;;3.30;86.50;;;;;;5109080;28;20050;-48
2022/01/07 01:48:31;;;;;;;16.02;7.82;;;3.30;86.60;;;;;;5103988;28;20441;-51
2022/01/07 01:50:57;;;;;;;17.33;8.65;;;3.20;86.80;;;;;;5109631;28;20027;-53
2022/01/07 01:53:25;;;;;;;17.65;8.23;;;3.20;86.80;;;;;;5087528;28;20032;-53
2022/01/07 01:55:54;;;;;;;19.25;8.45;;;3.20;87.00;;;;;;5109203;28;20035;-54
2022/01/07 01:58:21;;;;;;;16.80;7.97;;;3.20;87.10;;;;;;5088112;28;20032;-58
2022/01/07 02:00:48;;;;;;;14.65;7.28;;;3.20;87.30;;;;;;5103773;28;20063;-59
2022/01/07 02:03:15;;;;;;;13.55;7.85;;;3.10;87.40;;;;;;5114928;28;20028;-60
2022/01/07 02:05:44;;;;;;;20.00;8.15;;;3.10;87.60;;;;;;5104221;28;20024;-62
2022/01/07 02:08:12;;;;;;;15.02;8.02;;;3.10;87.70;;;;;;5104735;28;20031;-63
2022/01/07 02:10:40;;;;;;;14.65;7.50;;;3.10;87.80;;;;;;5096238;28;20035;-63
2022/01/07 02:13:06;;;;;;;16.65;6.95;;;3.10;88.00;;;;;;5114489;28;20031;-63
2022/01/07 02:15:33;;;;;;;21.13;8.77;;;3.00;88.00;;;;;;5098582;28;20165;-63
2022/01/07 02:18:00;;;;;;;18.15;8.38;;;3.00;88.10;;;;;;5105958;28;20101;-62
2022/01/07 02:20:31;;;;;;;18.33;7.40;;;3.00;88.30;;;;;;5114642;28;20494;-62
2022/01/07 02:23:01;;;;;;;18.23;9.63;;;3.10;88.30;;;;;;5108170;28;20016;-62
2022/01/07 02:25:28;;;;;;;21.98;8.30;;;3.00;88.30;;;;;;5090381;28;20394;-62
2022/01/07 02:27:56;;;;;;;19.90;8.63;;;2.90;88.30;;;;;;5099555;28;20036;-63
2022/01/07 02:30:29;;;;;;;22.30;8.50;;;3.00;88.40;;;;;;5077798;28;20472;-63
2022/01/07 02:32:56;;;;;;;20.60;9.25;;;2.90;88.40;;;;;;5099332;28;20045;-63
2022/01/07 02:35:27;;;;;;;18.77;7.95;;;2.90;88.80;;;;;;5096831;28;20056;-63
2022/01/07 02:37:54;;;;;;;16.17;8.13;;;2.90;88.80;;;;;;5112417;28;20023;-63
2022/01/07 02:40:21;;;;;;;21.17;8.63;;;2.80;88.80;;;;;;5111644;28;20047;-63
2022/01/07 02:42:48;;;;;;;16.02;9.02;;;2.80;89.00;;;;;;5096039;28;20032;-63
2022/01/07 02:45:16;;;;;;;19.98;10.32;;;2.90;89.10;;;;;;5076299;28;20147;-63
2022/01/07 02:47:50;;;;;;;15.32;8.35;;;2.80;89.10;;;;;;5079974;28;20114;-63
2022/01/07 02:50:18;;;;;;;17.52;8.70;;;2.70;89.10;;;;;;5104672;28;20028;-63
2022/01/07 02:52:46;;;;;;;14.70;8.87;;;2.70;89.30;;;;;;5095221;28;20035;-63
2022/01/07 02:55:13;;;;;;;17.67;9.38;;;2.70;89.20;;;;;;5102918;28;20361;-63
2022/01/07 02:57:42;;;;;;;19.55;9.50;;;2.70;89.30;;;;;;5077855;28;20077;-63
2022/01/07 03:00:10;;;;;;;14.48;8.73;;;2.70;89.40;;;;;;5113391;28;20024;-63
2022/01/07 03:02:37;;;;;;;17.25;9.13;;;2.70;89.40;;;;;;5094745;28;20038;-63
2022/01/07 03:05:05;;;;;;;18.52;8.85;;;2.60;89.50;;;;;;5087852;28;20024;-62
2022/01/07 03:07:33;;;;;;;16.48;8.63;;;2.60;89.80;;;;;;5112246;28;20036;-62
2022/01/07 03:10:00;;;;;;;13.35;9.20;;;2.50;89.70;;;;;;5097770;28;20031;-63
2022/01/07 03:12:27;;;;;;;15.82;8.32;;;2.50;89.80;;;;;;5076048;28;20035;-62
2022/01/07 03:14:54;;;;;;;16.27;9.05;;;2.50;89.80;;;;;;5107852;28;20023;-62
2022/01/07 03:17:20;;;;;;;15.40;8.32;;;2.40;90.00;;;;;;5094586;28;20047;-62
2022/01/07 03:19:47;;;;;;;18.23;9.90;;;2.50;90.10;;;;;;5102180;28;20034;-62
2022/01/07 03:22:14;;;;;;;17.60;8.60;;;2.40;90.10;;;;;;5093830;28;20461;-62
2022/01/07 03:24:40;;;;;;;14.85;9.07;;;2.40;90.20;;;;;;5097472;28;20433;-63
2022/01/07 03:27:07;;;;;;;14.77;8.90;;;2.50;90.10;;;;;;5112958;28;20026;-63
2022/01/07 03:29:33;;;;;;;16.77;8.23;;;2.40;90.10;;;;;;5077990;28;20085;-63
2022/01/07 03:31:59;;;;;;;17.25;7.68;;;2.40;90.10;;;;;;5075743;28;20040;-63
2022/01/07 03:34:28;;;;;;;15.20;8.65;;;2.40;90.10;;;;;;5069661;28;20060;-63
2022/01/07 03:36:55;;;;;;;18.10;10.05;;;2.40;90.20;;;;;;5112201;28;20058;-63
2022/01/07 03:39:22;;;;;;;15.90;8.27;;;2.30;90.30;;;;;;5099311;28;20403;-63
2022/01/07 03:41:49;;;;;;;13.57;8.45;;;2.30;90.40;;;;;;5093166;28;20028;-63
2022/01/07 03:44:15;;;;;;;16.65;9.88;;;2.40;90.40;;;;;;5101615;28;20032;-63
2022/01/07 03:46:40;;;;;;;15.38;8.50;;;2.40;90.50;;;;;;5112969;28;20031;-63
2022/01/07 03:49:07;;;;;;;16.98;9.50;;;2.40;90.50;;;;;;5100403;28;20031;-62
2022/01/07 03:51:34;;;;;;;15.52;8.25;;;2.40;90.60;;;;;;5112121;28;20038;-61
2022/01/07 03:54:00;;;;;;;16.45;8.45;;;2.40;90.60;;;;;;5101903;28;20411;-60
2022/01/07 03:56:26;;;;;;;17.42;8.43;;;2.30;90.60;;;;;;5093361;28;20413;-59
2022/01/07 03:58:53;;;;;;;14.60;9.40;;;2.30;90.60;;;;;;5097830;28;20056;-60
2022/01/07 04:01:19;;;;;;;13.70;8.02;;;2.30;90.70;;;;;;5110566;28;20032;-60
2022/01/07 04:03:47;;;;;;;14.40;8.95;;;2.30;90.60;;;;;;5107173;28;20035;-61
2022/01/07 04:06:17;;;;;;;18.45;8.65;;;2.30;90.70;;;;;;5097846;28;20028;-61
2022/01/07 04:08:44;;;;;;;22.17;9.93;;;2.30;90.70;;;;;;5115592;28;20360;-61
2022/01/07 04:11:10;;;;;;;15.32;9.20;;;2.30;90.80;;;;;;5100013;28;20024;-62
2022/01/07 04:13:37;;;;;;;17.83;9.13;;;2.30;90.80;;;;;;5104970;28;20032;-62
2022/01/07 04:16:04;;;;;;;14.77;8.85;;;2.30;90.70;;;;;;5099641;28;20036;-61
2022/01/07 04:18:31;;;;;;;18.30;10.27;;;2.30;90.70;;;;;;5112950;28;20050;-61
2022/01/07 04:20:59;;;;;;;14.85;9.15;;;2.30;90.70;;;;;;5118342;28;20156;-60
2022/01/07 04:23:26;;;;;;;16.55;10.10;;;2.40;90.70;;;;;;5108524;28;20090;-60
2022/01/07 04:25:53;;;;;;;15.05;10.70;;;2.40;90.80;;;;;;5118196;28;20043;-61
2022/01/07 04:28:20;;;;;;;16.33;10.02;;;2.40;90.80;;;;;;5119752;28;20035;-61
2022/01/07 04:30:47;;;;;;;18.38;10.45;;;2.40;90.80;;;;;;5107160;28;20036;-62
2022/01/07 04:33:21;;;;;;;15.93;9.43;;;2.40;90.80;;;;;;5081811;28;20460;-62
2022/01/07 04:35:48;;;;;;;13.50;9.77;;;2.30;90.80;;;;;;5105221;28;20040;-62
2022/01/07 04:38:15;;;;;;;14.43;10.18;;;2.40;90.90;;;;;;5099275;28;20046;-62
2022/01/07 04:40:44;;;;;;;13.32;9.68;;;2.40;90.80;;;;;;5099428;28;20117;-62
2022/01/07 04:43:13;;;;;;;14.80;10.45;;;2.40;90.70;;;;;;5101122;28;20040;-63
2022/01/07 04:45:43;;;;;;;13.77;9.43;;;2.40;90.80;;;;;;5104705;28;20039;-62
2022/01/07 04:48:10;;;;;;;16.90;10.27;;;2.40;90.70;;;;;;5102208;28;20063;-61
2022/01/07 04:50:39;;;;;;;15.98;12.18;;;2.40;90.80;;;;;;5115158;28;20416;-61
2022/01/07 04:53:06;;;;;;;20.55;11.90;;;2.50;90.70;;;;;;5099743;28;20043;-60
2022/01/07 04:55:43;;;;;;;15.02;10.13;;;2.50;90.70;;;;;;5102367;28;20040;-60
2022/01/07 04:58:14;;;;;;;17.73;10.57;;;2.50;90.70;;;;;;5099406;28;20023;-59
2022/01/07 05:00:43;;;;;;;13.93;11.02;;;2.50;90.70;;;;;;5065470;28;20081;-60
2022/01/07 05:03:10;;;;;;;14.82;11.23;;;2.50;90.70;;;;;;5099607;28;20032;-63
2022/01/07 05:05:37;;;;;;;16.13;11.45;;;2.40;90.80;;;;;;5092425;28;20089;-62
2022/01/07 05:08:04;;;;;;;15.32;10.52;;;2.40;90.80;;;;;;5100747;28;20024;-62
2022/01/07 05:10:31;;;;;;;17.88;11.43;;;2.50;90.90;;;;;;5116411;28;20027;-62
2022/01/07 05:13:01;;;;;;;16.80;11.48;;;2.50;90.80;;;;;;5088741;28;20051;-62
2022/01/07 05:15:30;;;;;;;13.98;10.45;;;2.50;90.70;;;;;;5097201;28;20031;-62
2022/01/07 05:17:57;;;;;;;13.13;10.25;;;2.50;90.80;;;;;;5103151;28;20159;-61
2022/01/07 05:20:23;;;;;;;17.15;11.55;;;2.50;90.80;;;;;;5096164;28;20123;-61
2022/01/07 05:22:49;;;;;;;15.77;10.45;;;2.50;90.90;;;;;;5078221;28;20130;-60
2022/01/07 05:25:16;;;;;;;14.27;11.13;;;2.60;90.90;;;;;;5085753;28;20032;-59
2022/01/07 05:27:44;;;;;;;18.02;11.30;;;2.60;90.70;;;;;;5088660;28;20028;-58
2022/01/07 05:30:14;;;;;;;13.52;10.57;;;2.60;90.80;;;;;;5097055;28;20423;-58
2022/01/07 05:32:41;;;;;;;16.00;10.52;;;2.60;90.80;;;;;;5088123;28;20027;-58
2022/01/07 05:35:08;;;;;;;13.68;10.45;;;2.60;90.80;;;;;;5111543;28;20103;-57
2022/01/07 05:37:38;;;;;;;15.13;10.52;;;2.60;90.80;;;;;;5114440;28;20031;-58
2022/01/07 05:40:06;;;;;;;13.32;10.15;;;2.60;90.80;;;;;;5093837;28;20028;-58
2022/01/07 05:42:35;;;;;;;14.02;10.57;;;2.60;90.80;;;;;;5113237;28;20129;-62
2022/01/07 05:45:03;;;;;;;13.88;10.73;;;2.60;90.70;;;;;;5080513;28;20040;-62
2022/01/07 05:47:29;;;;;;;15.10;10.57;;;2.60;90.70;;;;;;5115564;28;20457;-62
2022/01/07 05:49:56;;;;;;;17.35;11.40;;;2.60;90.70;;;;;;5093036;28;20027;-62
2022/01/07 05:52:23;;;;;;;14.73;10.63;;;2.60;90.60;;;;;;5095379;28;20027;-62
2022/01/07 05:54:50;;;;;;;12.65;10.50;;;2.60;90.60;;;;;;5111503;28;20081;-62
2022/01/07 05:57:17;;;;;;;15.38;11.00;;;2.60;90.70;;;;;;5077502;28;20054;-62
2022/01/07 05:59:44;;;;;;;13.15;10.02;;;2.60;90.60;;;;;;5097524;28;20376;-62
2022/01/07 06:02:09;;;;;;;12.70;10.40;;;2.50;90.70;;;;;;5115959;28;20028;-61
2022/01/07 06:04:35;;;;;;;14.38;11.55;;;2.50;90.80;;;;;;5114717;28;20039;-60
2022/01/07 06:07:02;;;;;;;15.27;10.27;;;2.50;90.70;;;;;;5107655;28;20028;-59
2022/01/07 06:09:29;;;;;;;11.93;10.63;;;2.50;90.80;;;;;;5101140;28;20040;-59
2022/01/07 06:12:01;;;;;;;13.65;10.77;;;2.50;90.80;;;;;;5109973;28;20028;-58
2022/01/07 06:14:28;;;;;;;15.88;10.82;;;2.50;90.80;;;;;;5112663;28;20036;-58
2022/01/07 06:16:55;;;;;;;16.90;10.50;;;2.60;90.80;;;;;;5114111;28;20054;-56
2022/01/07 06:19:22;;;;;;;13.88;10.65;;;2.50;90.80;;;;;;5113859;28;20188;-56
2022/01/07 06:21:49;;;;;;;13.10;10.48;;;2.60;90.80;;;;;;5114591;28;20050;-57
2022/01/07 06:24:15;;;;;;;17.52;11.32;;;2.60;90.70;;;;;;5114012;28;20103;-51
2022/01/07 06:26:42;;;;;;;15.38;10.98;;;2.60;90.70;;;;;;5111952;28;20103;-57
2022/01/07 06:29:10;;;;;;;14.32;10.48;;;2.60;90.80;;;;;;5114135;28;20058;-57
2022/01/07 06:31:35;;;;;;;15.77;12.25;;;2.60;90.70;;;;;;5112524;28;20114;-54
2022/01/07 06:34:02;;;;;;;16.20;11.10;;;2.60;90.70;;;;;;5110619;28;20170;-54
2022/01/07 06:36:30;;;;;;;13.00;10.82;;;2.60;90.80;;;;;;5095729;28;20069;-53
2022/01/07 06:38:59;;;;;;;12.98;9.95;;;2.60;90.80;;;;;;5111887;28;20026;-53
2022/01/07 06:41:26;;;;;;;12.63;10.40;;;2.60;90.80;;;;;;5114459;28;20024;-55
2022/01/07 06:43:53;;;;;;;16.60;12.25;;;2.70;90.80;;;;;;5112107;28;20464;-52
2022/01/07 06:46:20;;;;;;;13.43;11.75;;;2.70;90.70;;;;;;5077475;28;20476;-56
2022/01/07 06:48:50;;;;;;;13.07;10.00;;;2.70;90.70;;;;;;5113085;28;20043;-55
2022/01/07 06:51:17;;;;;;;13.75;11.13;;;2.70;90.80;;;;;;5076654;28;20117;-56
2022/01/07 06:53:45;;;;;;;14.00;11.23;;;2.70;90.60;;;;;;5098705;28;20358;-58
2022/01/07 06:56:10;;;;;;;14.93;11.85;;;2.70;90.60;;;;;;5096680;28;20038;-59
2022/01/07 06:58:36;;;;;;;11.73;10.50;;;2.80;90.60;;;;;;5112610;28;20024;-58
2022/01/07 07:01:08;;;;;;;14.48;10.48;;;2.70;90.60;;;;;;5102263;28;20114;-58
2022/01/07 07:03:35;;;;;;;14.93;10.45;;;2.70;90.60;;;;;;5113868;28;20032;-56
2022/01/07 07:06:02;;;;;;;12.55;10.43;;;2.70;90.80;;;;;;5109902;28;20444;-56
2022/01/07 07:08:28;;;;;;;15.73;11.60;;;2.80;90.70;;;;;;5089520;28;20051;-57
2022/01/07 07:10:55;;;;;;;13.93;9.77;;;2.70;90.70;;;;;;5106063;28;20039;-52
2022/01/07 07:13:22;;;;;;;12.63;11.15;;;2.80;90.80;;;;;;5107035;28;20044;-55
2022/01/07 07:15:49;;;;;;;16.33;12.30;;;2.80;90.80;;;;;;5107772;28;20531;-55
2022/01/07 07:18:17;;;;;;;15.38;11.32;;;2.90;90.80;;;;;;5101461;28;20118;-55
2022/01/07 07:20:44;;;;;;;14.95;10.30;;;2.80;90.80;;;;;;5108412;28;20161;-51
2022/01/07 07:23:11;;;;;;;15.73;11.32;;;2.80;90.80;;;;;;5107932;28;20103;-56
2022/01/07 07:25:37;;;;;;;14.48;11.48;;;2.90;90.90;;;;;;5101561;28;20444;-54
2022/01/07 07:28:04;;;;;;;14.45;10.95;;;2.90;90.90;;;;;;5100145;28;20040;-54
2022/01/07 07:30:38;;;;;;;20.13;11.65;;;2.90;90.90;;;;;;5108250;28;20065;-51
2022/01/07 07:38:41;;;;;;;15.10;11.98;;;2.90;90.90;;;;;;5093405;28;20057;-52
2022/01/07 07:41:10;;;;;;;15.82;12.75;;;3.00;90.80;;;;;;5090726;28;20027;-54
2022/01/07 07:43:38;;;;;;;17.13;12.23;;;2.90;90.80;;;;;;5099376;28;20111;-54
2022/01/07 07:46:05;;;;;;;13.85;10.75;;;3.00;90.80;;;;;;5103813;28;20039;-55
2022/01/07 07:48:34;;;;;;;16.10;11.75;;;3.00;90.80;;;;;;5111927;28;20110;-48
2022/01/07 07:51:00;;;;;;;15.02;11.88;;;3.00;90.80;;;;;;5112292;28;20035;-48
2022/01/07 07:53:27;;;;;;;14.77;12.20;;;3.00;90.90;;;;;;5091278;28;20044;-49
2022/01/07 07:55:53;;;;;;;15.68;11.88;;;3.00;90.80;;;;;;5111472;28;20040;-54
2022/01/07 07:58:24;;;;;;;16.50;12.02;;;3.00;90.80;;;;;;5111018;28;20036;-50
2022/01/07 08:00:51;;;;;;;13.23;11.18;;;3.00;90.80;;;;;;5104728;28;20028;-53
2022/01/07 08:03:21;;;;;;;15.75;12.20;;;3.10;90.80;;;;;;5107750;28;20575;-55
2022/01/07 08:05:49;;;;;;;14.45;11.30;;;3.10;90.70;;;;;;5093002;28;20471;-51
2022/01/07 08:08:18;;;;;;;21.02;12.25;;;3.10;90.90;;;;;;5112668;28;20036;-59
2022/01/07 08:10:54;;;;;;;15.77;11.95;;;3.10;90.80;;;;;;5103961;28;20027;-62
2022/01/07 08:13:30;;;;;;;13.70;11.10;;;3.20;90.80;;;;;;5101187;28;20032;-61
2022/01/07 08:15:58;;;;;;;17.25;12.25;;;3.10;90.80;;;;;;5109552;28;20137;-61
2022/01/07 08:18:37;;;;;;;17.85;12.38;;;3.20;90.90;;;;;;5108775;28;20028;-61
2022/01/07 08:21:24;;;;;;;16.40;12.27;;;3.20;90.90;;;;;;5108047;28;20024;-59
2022/01/07 08:23:53;;;;;;;14.20;11.73;;;3.20;90.90;;;;;;5081670;28;20289;-58
2022/01/07 08:26:19;;;;;;;17.08;12.13;;;3.20;90.90;;;;;;5107095;28;20058;-58
2022/01/07 08:28:52;;;;;;;15.30;10.88;;;3.20;90.90;;;;;;5109915;28;20035;-56
2022/01/07 08:31:26;;;;;;;17.83;13.02;;;3.30;91.00;;;;;;5093494;28;20027;-57
2022/01/07 08:36:39;;;;;;;15.70;11.43;;;3.20;90.90;;;;;;5111581;28;20131;-51
2022/01/07 08:39:07;;;;;;;16.63;12.65;;;3.30;90.90;;;;;;5100002;28;20031;-56
2022/01/07 08:41:34;;;;;;;14.27;11.73;;;3.30;90.90;;;;;;5112439;28;20073;-53
2022/01/07 08:44:00;;;;;;;16.23;12.82;;;3.30;90.90;;;;;;5086042;28;20124;-55
2022/01/07 08:46:28;;;;;;;14.50;11.13;;;3.40;90.90;;;;;;5111257;28;20028;-49
2022/01/07 08:48:56;;;;;;;16.27;12.00;;;3.40;90.80;;;;;;5100308;28;20039;-50
2022/01/07 08:51:26;;;;;;;16.88;12.13;;;3.40;90.80;;;;;;5105242;28;20020;-51
2022/01/07 08:53:55;;;;;;;15.85;12.05;;;3.50;90.80;;;;;;5076901;28;20043;-51
2022/01/07 08:56:26;;;;;;;18.27;12.15;;;3.40;90.70;;;;;;5114832;28;20376;-50
2022/01/07 08:58:54;;;;;;;15.73;12.32;;;3.50;90.60;;;;;;5079061;28;20028;-49
2022/01/07 09:01:23;;;;;;;15.20;12.52;;;3.50;90.50;;;;;;5099267;28;20076;-49
2022/01/07 09:03:50;;;;;;;17.30;12.07;;;3.50;90.60;;;;;;5107113;28;20023;-52
2022/01/07 09:06:18;;;;;;;16.65;12.45;;;3.50;90.70;;;;;;5104981;28;20032;-47
2022/01/07 09:08:45;;;;;;;15.13;12.48;;;3.50;90.60;;;;;;5105256;28;20046;-49
2022/01/07 09:11:14;;;;;;;15.82;11.77;;;3.50;90.60;;;;;;5112037;28;20032;-54
2022/01/07 09:13:42;;;;;;;19.48;11.65;;;3.50;90.60;;;;;;5098595;28;20406;-52
2022/01/07 09:16:08;;;;;;;15.02;11.88;;;3.60;90.70;;;;;;5107379;28;20080;-53
2022/01/07 09:18:35;;;;;;;16.10;12.43;;;3.60;90.60;;;;;;5102971;28;20040;-49
2022/01/07 09:21:02;;;;;;;15.27;12.07;;;3.60;90.60;;;;;;5100638;28;20028;-53
2022/01/07 09:23:31;;;;;;;17.13;12.15;;;3.70;90.60;;;;;;5084772;28;20035;-52
2022/01/07 09:26:01;;;;;;;17.05;12.43;;;3.70;90.60;;;;;;5089761;28;20571;-50
2022/01/07 09:28:28;;;;;;;16.70;12.68;;;3.70;90.60;;;;;;5089837;28;20148;-48
2022/01/07 09:30:58;;;;;;;16.48;13.00;;;3.70;90.60;;;;;;5106165;28;20098;-50
2022/01/07 09:33:25;;;;;;;21.85;11.90;;;3.80;90.60;;;;;;5110620;28;20162;-50
2022/01/07 09:35:52;;;;;;;18.50;12.40;;;3.90;90.50;;;;;;5102119;28;20501;-50
2022/01/07 09:38:19;;;;;;;19.33;11.90;;;3.90;90.50;;;;;;5099062;28;20028;-50
2022/01/07 09:40:46;;;;;;;16.88;10.55;;;3.90;90.40;;;;;;5099744;28;20042;-48
2022/01/07 09:43:14;;;;;;;15.88;12.50;;;3.90;90.30;;;;;;5085946;28;20056;-51
2022/01/07 09:45:40;;;;;;;19.17;12.80;;;4.00;90.30;;;;;;5084967;28;20046;-46
2022/01/07 09:48:10;;;;;;;16.50;11.35;;;4.00;90.30;;;;;;5095570;28;20070;-47
2022/01/07 09:50:37;;;;;;;17.92;12.02;;;4.10;90.20;;;;;;5107248;28;20464;-47
2022/01/07 09:53:12;;;;;;;13.80;10.98;;;4.10;90.00;;;;;;5104691;28;20035;-50
2022/01/07 09:55:39;;;;;;;17.25;11.48;;;4.20;90.00;;;;;;5083052;28;20051;-47
2022/01/07 09:58:07;;;;;;;18.30;11.07;;;4.20;89.90;;;;;;5095458;28;20031;-46
2022/01/07 10:00:38;;;;;;;17.42;10.10;;;4.20;89.70;;;;;;5106431;28;20115;-46
2022/01/07 10:03:08;;;;;;;15.00;10.73;;;4.30;89.70;;;;;;5105308;28;20031;-46
2022/01/07 10:05:51;;;;;;;16.33;11.05;;;4.30;89.60;;;;;;5113192;28;20493;-47
2022/01/07 10:08:35;;;;;;;15.25;11.27;;;4.30;89.50;;;;;;5109372;28;20054;-46
2022/01/07 10:11:18;;;;;;;17.60;10.43;;;4.40;89.50;;;;;;5095403;28;20546;-48
2022/01/07 10:14:11;;;;;;;15.10;10.55;;;4.60;89.40;;;;;;5101509;28;20046;-44
2022/01/07 10:16:59;;;;;;;19.33;10.90;;;4.60;89.10;;;;;;5106744;27;20103;-45
2022/01/07 10:19:37;;;;;;;21.58;11.82;;;4.70;88.90;;;;;;5108257;28;20022;-48
2022/01/07 10:22:09;;;;;;;16.15;11.73;;;4.80;88.80;;;;;;5109772;28;20027;-44
2022/01/07 10:24:54;;;;;;;15.05;10.63;;;4.80;88.80;;;;;;5086500;28;20040;-45
2022/01/07 10:27:21;;;;;;;17.27;10.35;;;4.90;88.80;;;;;;5106891;28;20462;-46
2022/01/07 10:29:47;;;;;;;17.15;11.05;;;5.10;88.80;;;;;;5099875;28;20088;-48
2022/01/07 10:32:24;;;;;;;18.50;10.25;;;5.20;88.40;;;;;;5108748;28;20048;-46
2022/01/07 10:35:14;;;;;;;17.15;10.27;;;5.30;87.90;;;;;;5108297;28;20028;-45
2022/01/07 10:37:56;;;;;;;;;;;5.50;88.10;;;;;;5105684;28;20036;-48
2022/01/07 10:40:34;;;;;;;16.83;10.32;;;5.60;87.40;;;;;;5110702;28;19968;-49
2022/01/07 10:43:27;;;;;;;17.67;10.27;;;5.60;87.40;;;;;;5090071;28;20051;-44
2022/01/07 10:46:00;;;;;;;15.48;9.32;;;5.70;87.30;;;;;;5105270;28;20135;-49
2022/01/07 10:48:41;;;;;;;20.33;9.73;;;5.70;87.10;;;;;;5082797;28;20467;-44
2022/01/07 10:51:14;;;;;;;11.93;9.57;;;5.60;87.00;;;;;;5094504;28;20028;-44
2022/01/07 10:53:47;;;;;;;17.58;10.40;;;5.60;87.00;;;;;;5098541;28;20027;-46
2022/01/07 10:56:31;;;;;;;14.10;9.43;;;5.40;87.00;;;;;;5111032;28;20099;-47
2022/01/07 10:59:09;;;;;;;22.75;11.85;;;5.30;87.20;;;;;;5095528;28;20026;-46
2022/01/07 11:01:57;;;;;;;12.90;10.40;;;5.20;87.40;;;;;;5093255;28;20040;-45
2022/01/07 11:04:26;;;;;;;13.43;10.13;;;5.10;87.60;;;;;;5107818;28;20030;-46
2022/01/07 11:06:56;;;;;;;15.65;11.23;;;5.00;87.90;;;;;;5098786;28;20036;-46
2022/01/07 11:09:23;;;;;;;17.90;11.43;;;5.00;88.10;;;;;;5082955;28;20403;-46
2022/01/07 11:12:08;;;;;;;19.52;12.38;;;5.00;88.20;;;;;;5101079;28;20040;-45
2022/01/07 11:14:35;;;;;;;18.95;11.68;;;5.00;88.30;;;;;;5080310;28;20035;-46
2022/01/07 11:17:04;;;;;;;19.05;12.50;;;4.90;88.30;;;;;;5104804;28;20035;-45
2022/01/07 11:19:37;;;;;;;17.35;12.20;;;5.00;88.40;;;;;;5101922;28;20020;-45
2022/01/07 11:22:11;;;;;;;22.10;11.93;;;5.00;88.50;;;;;;5112736;28;20456;-49
2022/01/07 11:25:08;;;;;;;19.48;12.98;;;5.00;88.50;;;;;;5110952;28;20066;-47
2022/01/07 11:27:46;;;;;;;22.25;13.77;;;5.10;88.60;;;;;;5092533;28;20044;-45
2022/01/07 11:30:15;;;;;;;23.58;13.20;;;5.20;88.40;;;;;;5099217;28;20453;-46
2022/01/07 11:32:50;;;;;;;21.00;13.32;;;5.10;88.30;;;;;;5103330;28;20114;-47
2022/01/07 11:35:23;;;;;;;21.05;12.93;;;5.10;88.40;;;;;;5087036;28;20070;-46
2022/01/07 11:38:13;;;;;;;19.98;12.45;;;5.10;88.40;;;;;;5092368;28;20016;-47
2022/01/07 11:40:45;;;;;;;32.53;13.25;;;5.10;88.20;;;;;;5111820;28;20058;-46
2022/01/07 11:43:20;;;;;;;25.05;13.18;;;5.20;88.30;;;;;;5079169;28;20027;-44
2022/01/07 11:45:49;;;;;;;21.05;12.57;;;5.10;88.30;;;;;;5105737;28;20071;-47
2022/01/07 11:48:24;;;;;;;27.60;13.77;;;5.10;88.30;;;;;;5086206;28;20024;-46
2022/01/07 11:50:55;;;;;;;19.60;12.80;;;5.20;88.10;;;;;;5111676;28;20089;-47
2022/01/07 11:53:40;;;;;;;18.35;13.48;;;5.20;88.20;;;;;;5104984;28;20492;-45
2022/01/07 11:56:19;;;;;;;22.02;14.35;;;5.20;88.30;;;;;;5085397;28;20031;-47
2022/01/07 11:58:55;;;;;;;23.40;13.65;;;5.20;88.30;;;;;;5084825;28;20593;-47
2022/01/07 12:01:42;;;;;;;21.00;13.43;;;5.20;88.00;;;;;;5101423;28;20493;-49
2022/01/07 12:04:19;;;;;;;18.45;12.70;;;5.30;88.10;;;;;;5100510;28;20043;-47
2022/01/07 12:07:04;;;;;;;22.58;13.15;;;5.40;88.10;;;;;;5102435;28;20024;-48
2022/01/07 12:09:36;;;;;;;19.35;11.23;;;5.40;87.80;;;;;;5100908;28;20028;-47
2022/01/07 12:12:07;;;;;;;17.60;11.25;;;5.40;87.50;;;;;;5101742;28;20012;-46
2022/01/07 12:14:53;;;;;;;19.20;12.32;;;5.50;87.50;;;;;;5085756;28;20031;-48
2022/01/07 12:17:22;;;;;;;12.80;9.00;;;5.50;87.10;;;;;;5102387;28;20024;-44
2022/01/07 12:19:51;;;;;;;17.07;8.50;;;5.50;87.10;;;;;;5103019;28;20023;-45
2022/01/07 12:22:20;;;;;;;10.17;8.43;;;5.50;86.60;;;;;;5101738;28;20524;-47
2022/01/07 12:24:49;;;;;;;12.50;9.30;;;5.50;86.70;;;;;;5094240;28;20027;-47
2022/01/07 12:27:22;;;;;;;14.18;9.27;;;5.60;86.70;;;;;;5088163;28;20397;-43
2022/01/07 12:29:57;;;;;;;10.90;8.65;;;5.70;86.50;;;;;;5087000;28;20116;-46
2022/01/07 12:32:36;;;;;;;13.00;10.05;;;5.70;86.70;;;;;;5087409;28;20030;-49
2022/01/07 12:35:05;;;;;;;16.90;9.32;;;5.70;86.60;;;;;;5106305;28;20690;-46
2022/01/07 12:37:32;;;;;;;12.23;8.35;;;5.80;86.40;;;;;;5105751;28;20031;-46
2022/01/07 12:40:03;;;;;;;14.70;9.05;;;5.70;86.30;;;;;;5091290;28;20389;-47
2022/01/07 12:42:35;;;;;;;11.85;9.20;;;5.70;86.20;;;;;;5090749;28;20100;-51
2022/01/07 12:45:02;;;;;;;15.82;12.15;;;5.70;86.30;;;;;;5106764;28;20048;-46
2022/01/07 12:47:31;;;;;;;16.73;11.13;;;5.70;86.50;;;;;;5105534;28;20039;-44
2022/01/07 12:50:15;;;;;;;16.95;13.05;;;5.70;86.80;;;;;;5104416;28;20038;-47
2022/01/07 12:52:43;;;;;;;12.70;9.38;;;5.70;86.90;;;;;;5089615;28;20365;-45
2022/01/07 12:55:23;;;;;;;18.05;11.73;;;5.60;86.90;;;;;;5088052;28;20369;-47
2022/01/07 12:57:51;;;;;;;12.60;11.27;;;5.60;86.90;;;;;;5105881;28;20055;-46
2022/01/07 13:00:28;;;;;;;14.27;10.80;;;5.50;86.90;;;;;;5104606;28;20012;-47